Time;durP1;ratioP1;P1;durP2;ratioP2;P2;SDS_P1;SDS_P2;PMS_P1;PMS_P2;Temp;Humidity;BMP_temperature;BMP_pressure;BME280_temperature;BME280_humidity;BME280_pressure;Samples;Min_cycle;Max_cycle;Signal;HPM_P1;HPM_P2
2023/01/06 00:02:21;;;;;;;35.10;12.57;;;;;;;7.28;61.15;101533.75;5070381;28;20040;-63
2023/01/06 00:04:47;;;;;;;30.10;10.90;;;;;;;7.27;60.99;101526.84;5064442;28;20046;-64
2023/01/06 00:07:17;;;;;;;29.15;11.07;;;;;;;6.54;63.32;101528.75;5050762;28;20056;-64
2023/01/06 00:09:45;;;;;;;35.38;11.82;;;;;;;7.35;61.44;101528.44;5063829;28;20218;-64
2023/01/06 00:12:10;;;;;;;31.90;11.05;;;;;;;7.54;60.69;101514.28;5079950;27;20130;-64
2023/01/06 00:14:36;;;;;;;32.33;11.27;;;;;;;7.54;60.60;101514.28;5063944;28;20051;-64
2023/01/06 00:17:01;;;;;;;32.20;12.25;;;;;;;7.51;60.77;101514.31;5062761;28;20028;-64
2023/01/06 00:19:27;;;;;;;28.55;11.55;;;;;;;7.38;61.03;101503.28;5063689;28;20043;-64
2023/01/06 00:21:52;;;;;;;26.85;12.10;;;;;;;7.14;61.80;101514.91;5067972;28;20101;-63
2023/01/06 00:24:18;;;;;;;33.72;11.82;;;;;;;7.45;61.16;101499.69;5059979;28;20112;-64
2023/01/06 00:26:47;;;;;;;30.52;11.75;;;;;;;7.46;61.23;101500.53;5064701;28;20488;-66
2023/01/06 00:29:13;;;;;;;37.25;13.27;;;;;;;7.73;60.32;101494.00;5080664;28;20043;-65
2023/01/06 00:31:38;;;;;;;28.27;12.50;;;;;;;7.79;59.92;101500.84;5066092;28;20028;-63
2023/01/06 00:34:04;;;;;;;31.27;11.38;;;;;;;7.65;60.33;101507.16;5061683;28;20032;-65
2023/01/06 00:36:29;;;;;;;35.30;13.70;;;;;;;7.03;62.67;101496.88;5080063;27;20499;-63
2023/01/06 00:38:55;;;;;;;26.35;11.60;;;;;;;7.50;60.79;101490.03;5059000;28;20497;-62
2023/01/06 00:44:05;;;;;;;33.47;11.95;;;;;;;7.53;60.98;101497.81;5067145;28;20032;-63
2023/01/06 00:46:33;;;;;;;26.15;12.30;;;;;;;7.61;60.58;101505.50;5065193;28;20021;-63
2023/01/06 00:49:00;;;;;;;33.90;12.82;;;;;;;7.38;61.58;101505.88;5063440;28;20102;-64
2023/01/06 00:51:26;;;;;;;27.15;12.07;;;;;;;7.41;61.74;101497.16;5061651;28;20028;-65
2023/01/06 00:53:52;;;;;;;29.52;10.85;;;;;;;7.32;62.07;101493.81;5062970;28;20169;-68
2023/01/06 00:56:17;;;;;;;29.38;11.63;;;;;;;7.18;62.23;101484.53;5062573;28;20040;-64
2023/01/06 00:58:43;;;;;;;23.33;10.27;;;;;;;7.38;61.89;101484.19;5065526;28;20442;-67
2023/01/06 01:01:09;;;;;;;28.33;10.40;;;;;;;7.33;62.15;101485.16;5064962;28;21255;-66
2023/01/06 01:03:36;;;;;;;28.27;11.15;;;;;;;7.63;61.11;101482.91;5072448;27;20040;-65
2023/01/06 01:06:05;;;;;;;25.48;10.75;;;;;;;7.21;62.19;101474.06;5048426;28;20304;-64
2023/01/06 01:08:31;;;;;;;24.15;11.75;;;;;;;7.62;60.86;101472.53;5064385;28;20044;-66
2023/01/06 01:11:09;;;;;;;25.55;10.45;;;;;;;7.27;62.72;101472.25;5064074;28;20036;-66
2023/01/06 01:13:35;;;;;;;18.98;10.55;;;;;;;7.22;62.98;101476.66;5060350;28;20051;-64
2023/01/06 01:16:05;;;;;;;24.15;10.20;;;;;;;7.65;61.24;101469.91;5061306;28;20047;-64
2023/01/06 01:18:31;;;;;;;24.30;10.52;;;;;;;7.02;63.42;101465.69;5063138;28;20043;-63
2023/01/06 01:20:57;;;;;;;22.67;9.82;;;;;;;7.43;62.04;101470.22;5061766;28;20064;-63
2023/01/06 01:23:25;;;;;;;21.98;9.32;;;;;;;7.53;61.29;101460.50;5060268;28;20064;-66
2023/01/06 01:25:55;;;;;;;32.10;11.02;;;;;;;7.35;62.24;101471.25;5073533;28;21085;-64
2023/01/06 01:28:20;;;;;;;17.83;9.98;;;;;;;7.47;61.78;101458.91;5063748;28;20037;-63
2023/01/06 01:30:46;;;;;;;24.58;10.00;;;;;;;7.00;63.13;101470.06;5050102;28;20062;-63
2023/01/06 01:33:11;;;;;;;30.52;11.05;;;;;;;7.27;62.86;101472.25;5077647;27;20048;-64
2023/01/06 01:35:37;;;;;;;27.25;10.55;;;;;;;6.42;65.42;101472.63;5057504;28;20044;-62
2023/01/06 01:38:02;;;;;;;22.45;9.10;;;;;;;7.19;63.51;101465.44;5060308;28;20036;-63
2023/01/06 01:40:28;;;;;;;25.58;10.60;;;;;;;6.98;63.33;101464.06;5062398;28;20042;-63
2023/01/06 01:42:53;;;;;;;30.02;9.75;;;;;;;7.23;62.74;101457.56;5061935;28;20064;-64
2023/01/06 01:45:28;;;;;;;30.73;11.30;;;;;;;6.93;63.79;101464.09;5050928;28;20558;-64
2023/01/06 01:48:12;;;;;;;17.33;8.23;;;;;;;7.49;61.97;101454.53;5060349;28;20043;-63
2023/01/06 01:50:52;;;;;;;19.02;8.05;;;;;;;7.13;63.18;101456.00;5059165;28;20044;-62
2023/01/06 01:53:28;;;;;;;19.20;8.75;;;;;;;7.53;61.81;101456.19;5058980;28;20071;-63
2023/01/06 01:55:59;;;;;;;28.63;10.10;;;;;;;7.31;62.63;101449.63;5058281;28;20038;-63
2023/01/06 01:58:28;;;;;;;21.98;8.95;;;;;;;7.21;62.79;101450.69;5077017;27;20502;-63
2023/01/06 02:00:54;;;;;;;21.35;8.68;;;;;;;7.36;61.84;101449.56;5047408;28;20342;-64
2023/01/06 02:03:21;;;;;;;17.60;9.95;;;;;;;7.32;62.33;101449.59;5057954;28;20036;-64
2023/01/06 02:05:54;;;;;;;23.63;9.18;;;;;;;7.44;61.99;101437.28;5054000;28;20170;-63
2023/01/06 02:08:30;;;;;;;22.70;8.75;;;;;;;7.29;62.77;101431.47;5044474;28;20051;-64
2023/01/06 02:10:55;;;;;;;25.30;9.82;;;;;;;7.47;61.83;101425.09;5044111;28;20051;-62
2023/01/06 02:13:21;;;;;;;21.88;9.73;;;;;;;7.21;62.75;101427.28;5062887;28;20079;-63
2023/01/06 02:15:50;;;;;;;23.55;9.45;;;;;;;7.08;63.44;101422.28;5054852;28;20321;-63
2023/01/06 02:18:31;;;;;;;26.70;10.45;;;;;;;7.21;62.84;101412.53;5068074;28;20108;-64
2023/01/06 02:21:15;;;;;;;22.30;9.75;;;;;;;7.60;60.87;101411.88;5070132;28;20473;-63
2023/01/06 02:23:56;;;;;;;23.30;10.45;;;;;;;7.26;62.15;101405.50;5062800;28;20032;-62
2023/01/06 02:26:33;;;;;;;34.65;10.95;;;;;;;7.43;61.66;101402.59;5060178;28;20736;-63
2023/01/06 02:29:14;;;;;;;24.10;10.40;;;;;;;7.44;61.54;101388.69;5058164;28;20056;-62
2023/01/06 02:31:43;;;;;;;26.23;11.45;;;;;;;7.51;61.18;101399.84;5061045;28;20131;-63
2023/01/06 02:34:21;;;;;;;34.00;11.15;;;;;;;7.26;61.94;101389.91;5053566;28;20055;-63
2023/01/06 02:37:14;;;;;;;28.88;12.05;;;;;;;6.91;63.12;101380.97;5061071;28;20027;-66
2023/01/06 02:39:56;;;;;;;29.42;12.85;;;;;;;7.67;61.00;101380.50;5054688;28;20032;-64
2023/01/06 02:43:04;;;;;;;25.95;9.98;;;;;;;7.06;63.00;101372.06;5059074;28;20036;-64
2023/01/06 02:45:55;;;;;;;30.42;11.60;;;;;;;7.25;62.24;101370.00;5000499;28;20041;-64
2023/01/06 02:48:32;;;;;;;28.25;11.77;;;;;;;7.53;61.32;101369.47;5071527;27;20032;-64
2023/01/06 02:51:05;;;;;;;22.55;11.45;;;;;;;7.11;62.79;101372.00;5057006;28;20164;-64
2023/01/06 02:53:50;;;;;;;27.63;11.85;;;;;;;6.87;62.93;101366.31;5055134;28;20285;-64
2023/01/06 02:56:22;;;;;;;24.75;10.45;;;;;;;7.27;61.89;101365.63;5056869;28;20047;-64
2023/01/06 02:58:57;;;;;;;30.05;11.00;;;;;;;7.48;61.28;101358.31;5075139;27;20036;-63
2023/01/06 03:01:45;;;;;;;27.67;11.32;;;;;;;7.51;61.19;101353.91;5059419;28;20460;-64
2023/01/06 03:04:17;;;;;;;32.90;10.38;;;;;;;7.18;62.04;101344.16;5055553;28;20036;-61
2023/01/06 03:06:49;;;;;;;23.30;9.82;;;;;;;6.89;62.83;101338.56;5075272;27;20038;-62
2023/01/06 03:09:20;;;;;;;19.40;9.25;;;;;;;7.58;60.73;101339.06;5064690;28;20500;-61
2023/01/06 03:11:50;;;;;;;21.50;9.52;;;;;;;7.68;60.28;101339.72;5056361;28;20042;-61
2023/01/06 03:14:26;;;;;;;24.98;9.95;;;;;;;7.12;61.67;101351.16;5069119;28;20040;-62
2023/01/06 03:16:53;;;;;;;21.92;10.25;;;;;;;7.35;61.55;101341.22;5057977;28;20062;-61
2023/01/06 03:19:19;;;;;;;21.92;9.55;;;;;;;7.62;60.71;101342.44;5058605;28;20093;-62
2023/01/06 03:21:51;;;;;;;19.65;9.02;;;;;;;7.16;61.93;101333.78;5069426;28;20032;-61
2023/01/06 03:24:20;;;;;;;21.33;8.02;;;;;;;7.34;61.17;101332.56;5045907;28;20036;-64
2023/01/06 03:26:47;;;;;;;18.00;7.40;;;;;;;7.40;61.17;101318.56;5062952;28;20040;-64
2023/01/06 03:29:17;;;;;;;19.52;8.02;;;;;;;6.85;62.50;101315.28;5065879;28;20306;-63
2023/01/06 03:32:01;;;;;;;19.98;8.68;;;;;;;7.19;61.53;101307.69;5039193;28;20508;-64
2023/01/06 03:34:39;;;;;;;18.38;8.57;;;;;;;6.85;62.71;101305.72;5059082;28;20067;-66
2023/01/06 03:37:37;;;;;;;17.77;7.45;;;;;;;7.50;60.22;101299.31;5039974;28;20101;-63
2023/01/06 03:40:39;;;;;;;12.43;6.55;;;;;;;7.59;60.11;101300.91;5059241;28;20232;-63
2023/01/06 03:43:26;;;;;;;16.00;7.05;;;;;;;6.74;62.83;101297.25;5039293;28;20448;-64
2023/01/06 03:46:07;;;;;;;12.35;5.95;;;;;;;7.03;61.65;101298.50;5055257;28;20036;-64
2023/01/06 03:48:52;;;;;;;14.98;6.80;;;;;;;6.87;62.47;101290.97;5056000;28;20374;-64
2023/01/06 03:51:37;;;;;;;12.27;6.95;;;;;;;7.25;60.91;101270.34;5063683;28;20140;-64
2023/01/06 03:54:47;;;;;;;15.77;7.00;;;;;;;7.22;60.89;101271.28;5059457;28;20068;-64
2023/01/06 03:57:38;;;;;;;16.88;6.25;;;;;;;7.07;61.48;101266.38;4980395;28;20238;-65
2023/01/06 04:00:15;;;;;;;10.38;5.22;;;;;;;6.93;60.96;101264.00;4976050;28;20784;-64
2023/01/06 04:02:49;;;;;;;13.65;5.18;;;;;;;6.98;61.26;101258.75;5036714;28;20244;-64
2023/01/06 04:05:23;;;;;;;11.55;5.80;;;;;;;7.32;60.33;101259.78;5061602;28;20047;-63
2023/01/06 04:07:50;;;;;;;14.50;5.40;;;;;;;7.22;60.52;101260.88;5057375;28;20403;-63
2023/01/06 04:10:19;;;;;;;9.07;4.82;;;;;;;7.19;60.41;101257.47;5091745;27;20036;-63
2023/01/06 04:12:47;;;;;;;9.35;4.10;;;;;;;7.60;59.46;101263.56;5056257;28;20661;-65
2023/01/06 04:15:22;;;;;;;7.60;4.72;;;;;;;6.65;61.81;101258.47;5062181;28;20036;-71
2023/01/06 04:17:50;;;;;;;12.65;5.28;;;;;;;7.07;60.44;101246.41;5059058;28;20037;-66
2023/01/06 04:20:26;;;;;;;7.13;4.78;;;;;;;6.90;61.22;101245.88;5054478;28;20040;-65
2023/01/06 04:22:57;;;;;;;9.20;4.57;;;;;;;7.09;60.72;101242.06;5039059;28;20075;-64
2023/01/06 04:25:24;;;;;;;8.35;4.43;;;;;;;7.60;59.00;101235.84;5054646;28;20055;-64
2023/01/06 04:27:50;;;;;;;11.00;4.03;;;;;;;7.04;60.46;101224.81;5055729;28;20035;-65
2023/01/06 04:30:17;;;;;;;9.32;3.85;;;;;;;7.21;59.75;101217.53;5059894;28;20051;-65
2023/01/06 04:32:43;;;;;;;8.63;4.68;;;;;;;7.15;59.88;101215.06;5056679;28;20048;-64
2023/01/06 04:35:09;;;;;;;4.13;3.45;;;;;;;7.11;60.17;101210.84;5066882;28;20063;-63
2023/01/06 04:37:35;;;;;;;8.48;4.45;;;;;;;7.31;59.43;101208.69;5063951;28;20071;-72
2023/01/06 04:40:01;;;;;;;8.25;4.75;;;;;;;6.90;60.82;101210.34;5064779;28;20580;-73
2023/01/06 04:42:26;;;;;;;6.15;3.88;;;;;;;6.85;60.96;101203.53;5062011;28;20051;-71
2023/01/06 04:44:51;;;;;;;8.90;4.47;;;;;;;7.31;59.42;101205.19;5060328;28;20036;-71
2023/01/06 04:47:17;;;;;;;6.07;4.30;;;;;;;7.17;59.67;101204.63;5075128;27;20670;-66
2023/01/06 04:49:42;;;;;;;5.57;4.10;;;;;;;6.79;60.83;101203.66;5057985;28;20852;-67
2023/01/06 04:52:08;;;;;;;5.40;3.65;;;;;;;7.32;59.45;101184.38;5066178;28;20071;-68
2023/01/06 04:54:34;;;;;;;11.80;3.83;;;;;;;7.41;58.94;101185.06;5086995;28;20040;-67
2023/01/06 04:57:00;;;;;;;8.75;3.20;;;;;;;7.03;60.06;101189.34;5084364;28;20044;-64
2023/01/06 04:59:28;;;;;;;9.70;3.72;;;;;;;7.00;60.46;101171.19;5088410;28;20037;-64
2023/01/06 05:01:53;;;;;;;8.32;3.95;;;;;;;7.25;59.22;101166.34;5070321;28;20354;-63
2023/01/06 05:04:19;;;;;;;6.28;3.28;;;;;;;7.14;59.88;101157.94;5077928;28;20052;-64
2023/01/06 05:06:45;;;;;;;4.85;3.20;;;;;;;6.98;59.95;101166.03;5067297;28;20468;-73
2023/01/06 05:09:11;;;;;;;7.70;3.67;;;;;;;6.40;61.88;101159.34;5066770;27;20029;-72
2023/01/06 05:11:37;;;;;;;7.85;4.15;;;;;;;6.86;60.58;101161.06;5061327;27;20112;-75
2023/01/06 05:14:04;;;;;;;9.40;3.95;;;;;;;7.17;59.47;101148.28;5068720;27;20044;-64
2023/01/06 05:16:33;;;;;;;9.38;3.90;;;;;;;7.06;60.03;101153.72;5062309;28;20564;-64
2023/01/06 05:19:00;;;;;;;7.82;4.13;;;;;;;6.79;60.68;101154.28;5077831;27;20150;-67
2023/01/06 05:21:28;;;;;;;8.30;3.47;;;;;;;7.09;59.69;101148.47;5063123;28;20671;-65
2023/01/06 05:23:54;;;;;;;5.43;3.88;;;;;;;6.79;60.61;101152.53;5057511;28;20052;-64
2023/01/06 05:26:25;;;;;;;6.13;3.22;;;;;;;7.16;59.46;101148.34;5062153;28;20124;-72
2023/01/06 05:28:51;;;;;;;5.45;3.13;;;;;;;6.91;59.97;101144.50;5063133;28;20451;-73
2023/01/06 05:31:16;;;;;;;5.75;3.78;;;;;;;6.85;59.96;101142.03;5061607;28;20367;-66
2023/01/06 05:33:42;;;;;;;10.15;3.72;;;;;;;7.18;58.99;101131.81;5061012;28;20135;-66
2023/01/06 05:36:11;;;;;;;6.65;3.78;;;;;;;7.33;58.55;101136.69;5069984;28;20101;-72
2023/01/06 05:38:37;;;;;;;5.07;3.13;;;;;;;7.06;59.27;101129.47;5064440;28;20142;-71
2023/01/06 05:41:03;;;;;;;8.18;4.18;;;;;;;6.32;61.19;101117.94;5061187;28;20027;-67
2023/01/06 05:43:29;;;;;;;8.23;3.85;;;;;;;6.99;59.26;101125.31;5062553;28;20108;-69
2023/01/06 05:45:55;;;;;;;4.88;4.03;;;;;;;7.37;58.26;101121.00;5060550;28;20104;-67
2023/01/06 05:48:24;;;;;;;7.13;4.25;;;;;;;7.33;58.46;101122.81;5066207;28;20572;-66
2023/01/06 05:50:50;;;;;;;5.85;4.00;;;;;;;7.40;58.40;101123.53;5060536;28;20035;-66
2023/01/06 05:53:15;;;;;;;10.13;6.32;;;;;;;6.98;59.43;101128.81;5063705;28;20094;-67
2023/01/06 05:55:41;;;;;;;7.75;4.75;;;;;;;7.24;58.66;101118.66;5065076;28;20522;-65
2023/01/06 05:58:06;;;;;;;11.65;6.18;;;;;;;6.83;60.01;101120.41;5065830;28;20039;-66
2023/01/06 06:00:32;;;;;;;6.47;5.10;;;;;;;6.85;59.62;101113.44;5072290;28;20152;-67
2023/01/06 06:02:57;;;;;;;6.78;4.95;;;;;;;7.12;59.00;101112.00;5071872;28;20121;-67
2023/01/06 06:05:23;;;;;;;7.90;5.53;;;;;;;6.99;59.50;101110.56;5068245;28;20602;-66
2023/01/06 06:07:55;;;;;;;9.93;6.35;;;;;;;6.80;59.62;101112.69;5060081;28;20285;-67
2023/01/06 06:10:21;;;;;;;9.63;5.60;;;;;;;6.66;60.45;101106.91;5045775;28;20090;-67
2023/01/06 06:12:47;;;;;;;10.32;6.20;;;;;;;7.01;59.38;101107.94;5059950;28;20409;-67
2023/01/06 06:15:13;;;;;;;9.43;5.85;;;;;;;6.87;59.83;101110.84;5059529;28;20438;-67
2023/01/06 06:17:38;;;;;;;12.77;6.00;;;;;;;6.35;61.11;101112.72;5059094;28;20037;-67
2023/01/06 06:20:04;;;;;;;11.73;6.30;;;;;;;6.59;60.19;101100.13;5062530;28;20584;-65
2023/01/06 06:22:30;;;;;;;11.00;6.28;;;;;;;7.23;58.52;101088.38;5061096;28;20089;-65
2023/01/06 06:24:55;;;;;;;8.80;5.63;;;;;;;6.91;59.21;101097.75;5045851;28;20043;-66
2023/01/06 06:27:21;;;;;;;10.02;5.47;;;;;;;7.18;58.28;101090.22;5067329;28;20041;-65
2023/01/06 06:29:46;;;;;;;9.35;5.53;;;;;;;6.73;59.50;101092.94;5059992;28;20270;-65
2023/01/06 06:32:12;;;;;;;7.07;5.32;;;;;;;6.28;61.21;101085.13;5061047;27;20135;-64
2023/01/06 06:34:37;;;;;;;6.40;4.78;;;;;;;6.91;59.20;101086.50;5061515;28;20040;-64
2023/01/06 06:37:02;;;;;;;9.38;6.18;;;;;;;6.80;60.09;101085.88;5063907;28;20035;-65
2023/01/06 06:39:28;;;;;;;8.48;6.20;;;;;;;7.32;58.24;101088.16;5063512;28;20592;-64
2023/01/06 06:41:53;;;;;;;10.27;5.55;;;;;;;7.45;57.89;101087.91;5061237;27;20090;-64
2023/01/06 06:44:19;;;;;;;11.00;6.15;;;;;;;6.85;59.82;101081.41;5063270;28;20749;-65
2023/01/06 06:46:44;;;;;;;6.03;5.30;;;;;;;6.91;59.89;101074.34;5060253;28;20039;-65
2023/01/06 06:49:12;;;;;;;6.90;4.70;;;;;;;6.55;60.99;101090.69;5062781;28;20684;-64
2023/01/06 06:51:37;;;;;;;9.05;5.95;;;;;;;6.86;59.91;101081.41;5058854;28;20028;-64
2023/01/06 06:54:05;;;;;;;7.18;6.00;;;;;;;6.80;60.59;101091.91;5062962;28;20035;-65
2023/01/06 06:56:30;;;;;;;8.25;6.22;;;;;;;6.60;61.16;101081.06;5078441;28;20056;-64
2023/01/06 06:58:57;;;;;;;9.95;5.57;;;;;;;6.27;62.74;101088.59;5067051;28;20043;-65
2023/01/06 07:01:22;;;;;;;6.13;4.88;;;;;;;6.79;60.89;101077.19;5063284;28;20515;-65
2023/01/06 07:03:48;;;;;;;7.90;5.68;;;;;;;6.56;61.73;101079.44;5060088;28;20047;-64
2023/01/06 07:06:18;;;;;;;12.35;6.03;;;;;;;6.93;60.85;101081.25;5061910;28;20052;-64
2023/01/06 07:08:45;;;;;;;10.68;5.72;;;;;;;6.45;61.73;101080.47;5065510;28;20195;-64
2023/01/06 07:14:57;;;;;;;8.20;4.82;;;;;;;6.70;61.47;101073.03;5045279;27;20098;-65
2023/01/06 07:17:27;;;;;;;6.68;4.63;;;;;;;6.14;63.31;101067.19;5057772;28;20044;-66
2023/01/06 07:19:54;;;;;;;11.82;4.88;;;;;;;6.35;62.85;101060.78;5060973;28;20560;-65
2023/01/06 07:22:20;;;;;;;8.20;5.18;;;;;;;6.20;63.34;101064.50;5059315;28;20040;-65
2023/01/06 07:24:48;;;;;;;8.27;5.53;;;;;;;6.61;62.22;101057.66;5056683;28;20245;-66
2023/01/06 07:27:13;;;;;;;15.50;5.43;;;;;;;6.38;63.01;101065.91;5058143;28;20039;-65
2023/01/06 07:29:38;;;;;;;10.68;5.35;;;;;;;6.28;63.25;101043.59;5059573;28;20048;-65
2023/01/06 07:32:04;;;;;;;10.60;5.57;;;;;;;6.14;63.85;101050.78;5057861;28;20044;-65
2023/01/06 07:34:30;;;;;;;6.68;4.55;;;;;;;6.43;62.97;101056.28;5061502;28;20151;-66
2023/01/06 07:36:58;;;;;;;7.38;4.55;;;;;;;7.03;60.77;101054.19;5060568;27;20035;-65
2023/01/06 07:39:23;;;;;;;12.80;5.47;;;;;;;6.47;62.97;101049.31;5063692;28;20038;-64
2023/01/06 07:41:49;;;;;;;7.65;4.60;;;;;;;6.19;63.31;101059.31;5060987;27;20032;-65
2023/01/06 07:44:17;;;;;;;9.95;5.07;;;;;;;6.19;63.82;101070.53;5063436;28;20229;-65
2023/01/06 07:46:42;;;;;;;6.40;4.53;;;;;;;5.96;64.41;101086.53;5060670;28;20038;-65
2023/01/06 07:49:07;;;;;;;12.90;6.18;;;;;;;6.18;63.91;101083.56;5062973;28;20098;-65
2023/01/06 07:51:33;;;;;;;8.82;5.32;;;;;;;6.62;62.78;101084.47;5080174;28;20122;-65
2023/01/06 07:53:59;;;;;;;8.45;5.43;;;;;;;5.93;64.66;101084.00;5061463;27;20193;-65
2023/01/06 07:56:25;;;;;;;13.98;6.47;;;;;;;6.45;63.07;101092.63;5060022;28;20066;-64
2023/01/06 07:58:55;;;;;;;11.43;4.93;;;;;;;6.07;65.13;101088.94;5055896;28;20040;-64
2023/01/06 08:01:21;;;;;;;10.18;5.28;;;;;;;6.20;64.31;101089.59;5059322;28;20055;-64
2023/01/06 08:03:46;;;;;;;5.13;4.47;;;;;;;6.14;64.87;101097.47;5039504;28;20040;-65
2023/01/06 08:06:12;;;;;;;6.78;4.57;;;;;;;6.18;64.58;101099.16;5057257;28;20032;-67
2023/01/06 08:08:39;;;;;;;6.85;4.15;;;;;;;6.22;64.88;101101.66;5061232;28;20513;-62
2023/01/06 08:11:07;;;;;;;7.63;4.50;;;;;;;6.30;64.60;101114.50;5062751;28;20066;-66
2023/01/06 08:13:33;;;;;;;7.05;4.65;;;;;;;6.19;64.62;101106.88;5054792;28;20056;-65
2023/01/06 08:16:05;;;;;;;7.18;4.68;;;;;;;6.27;64.04;101104.16;5062319;28;20126;-67
2023/01/06 08:18:31;;;;;;;7.07;3.60;;;;;;;6.00;65.13;101119.34;5061321;28;20919;-67
2023/01/06 08:21:04;;;;;;;6.53;3.80;;;;;;;6.33;64.31;101098.03;5055917;28;20036;-67
2023/01/06 08:23:33;;;;;;;7.50;4.30;;;;;;;6.26;64.28;101112.81;5059832;28;20738;-67
2023/01/06 08:26:02;;;;;;;6.80;3.70;;;;;;;6.37;64.30;101136.88;5064316;28;20044;-67
2023/01/06 08:28:28;;;;;;;4.22;3.50;;;;;;;5.83;65.32;101134.31;5043432;28;20040;-67
2023/01/06 08:30:54;;;;;;;6.47;3.85;;;;;;;6.01;65.44;101159.97;5065935;28;20043;-67
2023/01/06 08:33:19;;;;;;;5.50;4.10;;;;;;;6.48;64.05;101173.03;5063941;28;20155;-66
2023/01/06 08:35:46;;;;;;;4.22;2.88;;;;;;;6.56;62.98;101184.16;5066648;28;20062;-67
2023/01/06 08:38:12;;;;;;;6.07;1.48;;;;;;;6.61;62.06;101177.13;5065194;28;20139;-66
2023/01/06 08:40:37;;;;;;;4.38;0.70;;;;;;;6.08;62.75;101184.94;5066793;28;20787;-67
2023/01/06 08:43:03;;;;;;;0.85;0.20;;;;;;;5.97;62.43;101209.34;5071496;28;20051;-66
2023/01/06 08:45:28;;;;;;;4.68;1.17;;;;;;;5.80;61.36;101212.19;5061928;28;20037;-66
2023/01/06 08:47:56;;;;;;;1.88;0.22;;;;;;;5.97;61.70;101212.81;5072479;28;20691;-65
2023/01/06 08:50:21;;;;;;;0.77;0.32;;;;;;;6.06;60.68;101209.19;5061844;28;20051;-65
2023/01/06 08:52:47;;;;;;;1.63;0.20;;;;;;;6.32;60.04;101221.78;5057312;28;20107;-65
2023/01/06 08:55:12;;;;;;;0.50;0.20;;;;;;;6.36;59.85;101227.78;5064709;28;20126;-65
2023/01/06 08:57:40;;;;;;;4.45;0.50;;;;;;;5.73;60.23;101227.00;5063192;28;20032;-65
2023/01/06 09:00:06;;;;;;;6.65;0.10;;;;;;;5.88;59.72;101233.69;5063484;28;20060;-65
2023/01/06 09:02:34;;;;;;;2.67;0.20;;;;;;;6.26;58.80;101232.22;5061758;28;20271;-66
2023/01/06 09:05:00;;;;;;;1.70;0.20;;;;;;;5.80;59.91;101230.34;5060462;28;20063;-66
2023/01/06 09:07:30;;;;;;;7.68;0.30;;;;;;;5.77;59.87;101248.53;5062114;28;20044;-66
2023/01/06 09:09:55;;;;;;;2.72;0.13;;;;;;;6.14;59.15;101250.59;5062734;27;20031;-65
2023/01/06 09:12:21;;;;;;;13.50;0.52;;;;;;;5.96;59.38;101260.38;5063916;28;20115;-65
2023/01/06 09:14:46;;;;;;;9.32;0.52;;;;;;;6.29;58.65;101263.38;5063200;28;20565;-64
2023/01/06 09:17:12;;;;;;;5.85;0.20;;;;;;;6.43;58.57;101260.56;5068159;28;20505;-65
2023/01/06 09:19:37;;;;;;;6.63;0.73;;;;;;;6.43;58.33;101255.38;5064479;28;20064;-63
2023/01/06 09:22:03;;;;;;;6.18;0.52;;;;;;;6.90;57.62;101267.50;5065823;28;20676;-64
2023/01/06 09:24:28;;;;;;;5.80;0.45;;;;;;;6.67;57.73;101269.69;5063694;28;20409;-64
2023/01/06 09:26:54;;;;;;;7.45;0.30;;;;;;;6.69;57.27;101273.97;5065107;28;20146;-65
2023/01/06 09:29:20;;;;;;;2.38;0.45;;;;;;;6.51;57.41;101271.69;5059262;28;20269;-64
2023/01/06 09:31:45;;;;;;;1.25;0.30;;;;;;;6.85;56.45;101282.34;5062135;28;20591;-64
2023/01/06 09:34:13;;;;;;;2.83;0.13;;;;;;;6.45;56.57;101280.41;5062401;28;20195;-64
2023/01/06 09:36:38;;;;;;;11.20;1.00;;;;;;;7.09;55.99;101288.84;5064144;28;20507;-66
2023/01/06 09:39:04;;;;;;;4.45;0.30;;;;;;;7.17;54.48;101301.69;5063821;28;20047;-64
2023/01/06 09:41:48;;;;;;;6.03;1.08;;;;;;;7.21;53.58;101310.28;5074719;28;20230;-66
2023/01/06 09:44:57;;;;;;;8.63;0.63;;;;;;;7.20;53.93;101313.75;5070165;28;20290;-66
2023/01/06 09:47:32;;;;;;;7.25;0.20;;;;;;;7.30;53.38;101318.75;5026878;28;20136;-66
2023/01/06 09:49:58;;;;;;;6.28;0.82;;;;;;;7.44;53.41;101313.28;5064817;28;20539;-66
2023/01/06 09:52:43;;;;;;;4.32;0.20;;;;;;;7.86;52.87;101322.88;5064689;28;20047;-66
2023/01/06 09:55:18;;;;;;;6.05;0.75;;;;;;;7.78;52.46;101324.78;5059682;28;20301;-66
2023/01/06 09:57:55;;;;;;;5.72;0.20;;;;;;;7.58;51.96;101325.19;5064175;28;20040;-67
2023/01/06 10:00:37;;;;;;;12.38;0.88;;;;;;;7.42;52.38;101328.09;5065593;28;20694;-66
2023/01/06 10:03:03;;;;;;;8.13;0.60;;;;;;;6.84;53.65;101335.22;5064765;28;20036;-67
2023/01/06 10:05:37;;;;;;;4.13;0.80;;;;;;;8.08;50.53;101334.53;5057921;28;20047;-67
2023/01/06 10:08:12;;;;;;;4.70;0.20;;;;;;;7.68;50.80;101329.31;5065128;28;20036;-67
2023/01/06 10:10:56;;;;;;;5.22;0.32;;;;;;;7.85;51.15;101342.00;5062506;28;20067;-66
2023/01/06 10:13:52;;;;;;;5.05;0.40;;;;;;;7.68;51.51;101345.78;5065808;28;20147;-66
2023/01/06 10:16:33;;;;;;;2.83;0.20;;;;;;;7.33;52.20;101346.44;5033192;28;20050;-67
2023/01/06 10:19:17;;;;;;;2.03;0.30;;;;;;;7.77;51.16;101367.31;5062433;28;20043;-66
2023/01/06 10:22:14;;;;;;;8.32;0.60;;;;;;;8.52;49.04;101369.13;5066259;28;20842;-67
2023/01/06 10:24:58;;;;;;;1.20;0.30;;;;;;;8.11;50.02;101365.72;5058072;28;20047;-66
2023/01/06 10:27:39;;;;;;;6.68;0.10;;;;;;;7.28;51.25;101372.53;5060060;28;20041;-68
2023/01/06 10:30:19;;;;;;;0.65;0.10;;;;;;;7.32;51.77;101375.94;5058332;28;20052;-67
2023/01/06 10:32:47;;;;;;;1.70;0.10;;;;;;;7.65;49.94;101377.09;5058159;28;20036;-66
2023/01/06 10:35:15;;;;;;;5.50;0.40;;;;;;;7.35;50.78;101375.88;5059830;28;20497;-66
2023/01/06 10:37:43;;;;;;;8.70;0.85;;;;;;;7.24;51.46;101391.66;5068359;28;20054;-66
2023/01/06 10:40:21;;;;;;;2.05;0.20;;;;;;;7.47;50.83;101386.06;5066501;28;20047;-66
2023/01/06 10:42:56;;;;;;;4.07;0.25;;;;;;;7.52;50.54;101385.97;5059488;28;20058;-66
2023/01/06 10:45:32;;;;;;;6.47;0.35;;;;;;;7.95;49.25;101390.34;5057208;28;20048;-65
2023/01/06 10:48:00;;;;;;;5.93;1.02;;;;;;;7.61;50.26;101382.38;5063485;28;20425;-66
2023/01/06 10:50:26;;;;;;;4.43;0.40;;;;;;;7.54;50.50;101389.41;5059538;28;20039;-65
2023/01/06 10:52:51;;;;;;;2.58;0.38;;;;;;;7.61;50.18;101392.78;5051459;28;20074;-67
2023/01/06 10:55:57;;;;;;;4.07;0.57;;;;;;;7.40;50.76;101387.06;5058364;28;20052;-67
2023/01/06 10:58:58;;;;;;;2.95;0.20;;;;;;;7.06;52.10;101402.38;5058786;28;20040;-65
2023/01/06 11:01:25;;;;;;;1.83;0.22;;;;;;;7.18;51.70;101391.78;5059404;28;20136;-66
2023/01/06 11:04:18;;;;;;;4.00;0.40;;;;;;;7.04;52.51;101393.75;5055662;28;20032;-67
2023/01/06 11:06:55;;;;;;;6.68;0.82;;;;;;;6.93;52.55;101395.69;5061896;28;20135;-66
2023/01/06 11:09:27;;;;;;;4.60;0.55;;;;;;;6.86;52.78;101398.41;5060534;28;20470;-67
2023/01/06 11:11:55;;;;;;;3.70;0.20;;;;;;;6.87;53.02;101394.06;5060608;28;20415;-67
2023/01/06 11:14:24;;;;;;;5.43;0.55;;;;;;;6.44;53.85;101398.16;5047567;28;20420;-66
2023/01/06 11:16:59;;;;;;;6.25;0.80;;;;;;;7.44;51.58;101388.69;5057413;28;20537;-66
2023/01/06 11:19:35;;;;;;;2.03;0.10;;;;;;;7.01;52.60;101405.06;5058603;28;20032;-67
2023/01/06 11:22:03;;;;;;;5.43;0.52;;;;;;;6.70;53.27;101399.50;5063124;28;20491;-68
2023/01/06 11:24:29;;;;;;;4.90;0.50;;;;;;;6.94;52.35;101398.25;5058000;28;20036;-66
2023/01/06 11:27:12;;;;;;;12.75;0.50;;;;;;;7.46;51.39;101406.88;5062673;28;20035;-66
2023/01/06 11:29:38;;;;;;;9.65;0.35;;;;;;;7.44;51.10;101404.31;5056357;28;20295;-66
2023/01/06 11:32:13;;;;;;;3.60;0.20;;;;;;;7.66;50.79;101410.00;5063156;28;20039;-66
2023/01/06 11:34:47;;;;;;;9.23;0.38;;;;;;;6.91;51.85;101419.97;5061621;28;20715;-66
2023/01/06 11:37:15;;;;;;;9.63;0.65;;;;;;;8.09;49.67;101403.06;5060891;28;20040;-66
2023/01/06 11:39:41;;;;;;;5.22;0.40;;;;;;;8.06;49.42;101397.94;5060040;28;20036;-66
2023/01/06 11:42:13;;;;;;;5.38;0.50;;;;;;;8.07;49.62;101405.72;5064383;28;20066;-67
2023/01/06 11:44:41;;;;;;;7.28;0.30;;;;;;;7.98;49.06;101397.22;5058498;28;20036;-66
2023/01/06 11:47:12;;;;;;;7.45;0.30;;;;;;;7.37;50.63;101399.25;5061321;28;20040;-66
2023/01/06 11:49:47;;;;;;;10.32;0.30;;;;;;;7.45;50.29;101405.19;5061403;28;20181;-67
2023/01/06 11:52:20;;;;;;;2.55;0.20;;;;;;;7.31;50.58;101403.69;5055658;28;20097;-67